ITY1730 LICC-LIRF
Flight info
| Callsign | ITY1730 |
|---|---|
| Flight time | 1h 12m |
| Altitude | 34000 |
| Route | BUDIN DCT DIRED DCT SOR DCT TEA Z803 LAT |
| Aircraft | A320/M-SDE3FGHIRWY/LB1 |
Departure
| Time | 2026-05-04 12:08 |
|---|---|
| Airport | Catania-Fontanarossa Airport (LICC) |
Arrival
| Time | 2026-05-04 13:20 |
|---|---|
| Airport | Rome–Fiumicino Leonardo da Vinci International Airport (LIRF) |
| Time | Latitude | Longitude | Altitude | Speed | Heading |
|---|---|---|---|---|---|
| 2026-05-04 11:36 | 37.46939 | 15.06813 | 51 ft | 0 kts | 354° |
| 2026-05-04 11:57 | 37.46931 | 15.06814 | 49 ft | 4 kts | 353° |
| 2026-05-04 11:57 | 37.46904 | 15.06819 | 47 ft | 4 kts | 346° |
| 2026-05-04 11:57 | 37.46879 | 15.06829 | 47 ft | 4 kts | 329° |
| 2026-05-04 11:57 | 37.46863 | 15.06850 | 50 ft | 4 kts | 272° |
| 2026-05-04 11:58 | 37.46862 | 15.06855 | 49 ft | 1 kts | 264° |
| 2026-05-04 12:02 | 37.46841 | 15.06609 | 51 ft | 8 kts | 264° |
| 2026-05-04 12:03 | 37.46835 | 15.06537 | 51 ft | 8 kts | 264° |
| 2026-05-04 12:03 | 37.46829 | 15.06466 | 51 ft | 9 kts | 264° |
| 2026-05-04 12:03 | 37.46820 | 15.06348 | 49 ft | 17 kts | 264° |
| 2026-05-04 12:03 | 37.46808 | 15.06207 | 51 ft | 16 kts | 264° |
| 2026-05-04 12:04 | 37.46797 | 15.06077 | 51 ft | 14 kts | 264° |
| 2026-05-04 12:04 | 37.46787 | 15.05961 | 51 ft | 13 kts | 264° |
| 2026-05-04 12:04 | 37.46777 | 15.05852 | 49 ft | 12 kts | 264° |
| 2026-05-04 12:04 | 37.46769 | 15.05749 | 51 ft | 12 kts | 264° |
| 2026-05-04 12:05 | 37.46760 | 15.05644 | 51 ft | 13 kts | 264° |
| 2026-05-04 12:05 | 37.46750 | 15.05532 | 51 ft | 14 kts | 264° |
| 2026-05-04 12:05 | 37.46741 | 15.05412 | 51 ft | 13 kts | 264° |
| 2026-05-04 12:05 | 37.46716 | 15.05310 | 51 ft | 12 kts | 228° |
| 2026-05-04 12:06 | 37.46662 | 15.05244 | 51 ft | 10 kts | 223° |
| 2026-05-04 12:06 | 37.46605 | 15.05194 | 51 ft | 10 kts | 193° |
| 2026-05-04 12:06 | 37.46562 | 15.05246 | 48 ft | 10 kts | 91° |
| 2026-05-04 12:06 | 37.46564 | 15.05279 | 47 ft | 0 kts | 85° |
| 2026-05-04 12:07 | 37.46576 | 15.05438 | 50 ft | 53 kts | 85° |
| 2026-05-04 12:07 | 37.46642 | 15.06208 | 51 ft | 121 kts | 84° |
| 2026-05-04 12:07 | 37.46737 | 15.07473 | 233 ft | 156 kts | 88° |
| 2026-05-04 12:08 | 37.46855 | 15.08824 | 987 ft | 158 kts | 85° |
| 2026-05-04 12:08 | 37.47031 | 15.10162 | 1652 ft | 156 kts | 83° |
| 2026-05-04 12:08 | 37.47228 | 15.11588 | 1919 ft | 175 kts | 81° |
| 2026-05-04 12:08 | 37.47457 | 15.13237 | 2058 ft | 205 kts | 81° |
| 2026-05-04 12:09 | 37.47719 | 15.15119 | 2342 ft | 230 kts | 81° |
| 2026-05-04 12:09 | 37.48010 | 15.17203 | 2765 ft | 252 kts | 81° |
| 2026-05-04 12:09 | 37.48320 | 15.19423 | 3470 ft | 260 kts | 81° |
| 2026-05-04 12:09 | 37.48635 | 15.21681 | 4312 ft | 263 kts | 80° |
| 2026-05-04 12:10 | 37.48952 | 15.23955 | 5229 ft | 265 kts | 80° |
| 2026-05-04 12:10 | 37.49295 | 15.26239 | 6096 ft | 267 kts | 74° |
| 2026-05-04 12:10 | 37.50046 | 15.28375 | 6930 ft | 269 kts | 55° |
| 2026-05-04 12:10 | 37.51278 | 15.30143 | 7565 ft | 277 kts | 37° |
| 2026-05-04 12:11 | 37.52900 | 15.31487 | 8317 ft | 281 kts | 29° |
| 2026-05-04 12:11 | 37.54578 | 15.32782 | 9132 ft | 284 kts | 31° |
| 2026-05-04 12:11 | 37.56269 | 15.34095 | 9959 ft | 287 kts | 30° |
| 2026-05-04 12:11 | 37.57974 | 15.35424 | 10695 ft | 291 kts | 30° |
| 2026-05-04 12:12 | 37.59756 | 15.36817 | 10973 ft | 313 kts | 30° |
| 2026-05-04 12:12 | 37.61670 | 15.38313 | 11226 ft | 333 kts | 30° |
| 2026-05-04 12:12 | 37.63663 | 15.39878 | 11811 ft | 340 kts | 30° |
| 2026-05-04 12:12 | 37.65686 | 15.41472 | 12486 ft | 346 kts | 30° |
| 2026-05-04 12:13 | 37.67742 | 15.43075 | 13179 ft | 349 kts | 27° |
| 2026-05-04 12:14 | 37.84027 | 15.40147 | 17663 ft | 358 kts | 337° |
| 2026-05-04 12:15 | 37.86354 | 15.38984 | 18279 ft | 361 kts | 337° |
| 2026-05-04 12:15 | 37.88693 | 15.37812 | 18836 ft | 363 kts | 336° |
| 2026-05-04 12:15 | 37.91048 | 15.36631 | 19374 ft | 365 kts | 336° |
| 2026-05-04 12:15 | 37.93419 | 15.35445 | 19935 ft | 367 kts | 336° |
| 2026-05-04 12:16 | 37.95797 | 15.34257 | 20498 ft | 368 kts | 336° |
| 2026-05-04 12:16 | 37.98184 | 15.33059 | 21052 ft | 370 kts | 336° |
| 2026-05-04 12:16 | 38.00584 | 15.31849 | 21616 ft | 372 kts | 336° |
| 2026-05-04 12:16 | 38.02996 | 15.30636 | 22171 ft | 373 kts | 335° |
| 2026-05-04 12:17 | 38.05382 | 15.29436 | 22695 ft | 375 kts | 335° |
| 2026-05-04 12:17 | 38.07810 | 15.28214 | 23238 ft | 376 kts | 335° |
| 2026-05-04 12:17 | 38.10255 | 15.26983 | 23727 ft | 379 kts | 335° |
| 2026-05-04 12:17 | 38.12705 | 15.25744 | 24130 ft | 380 kts | 335° |
| 2026-05-04 12:18 | 38.15171 | 15.24494 | 24535 ft | 383 kts | 335° |
| 2026-05-04 12:18 | 38.17650 | 15.23237 | 24949 ft | 384 kts | 335° |
| 2026-05-04 12:18 | 38.20141 | 15.21976 | 25359 ft | 386 kts | 335° |
| 2026-05-04 12:18 | 38.22637 | 15.20716 | 25758 ft | 387 kts | 335° |
| 2026-05-04 12:19 | 38.25147 | 15.19451 | 26152 ft | 388 kts | 335° |
| 2026-05-04 12:19 | 38.27659 | 15.18179 | 26531 ft | 389 kts | 335° |
| 2026-05-04 12:19 | 38.30178 | 15.16900 | 26902 ft | 391 kts | 335° |
| 2026-05-04 12:19 | 38.32711 | 15.15616 | 27279 ft | 392 kts | 335° |
| 2026-05-04 12:20 | 38.35247 | 15.14327 | 27646 ft | 393 kts | 335° |
| 2026-05-04 12:20 | 38.37794 | 15.13029 | 28010 ft | 395 kts | 335° |
| 2026-05-04 12:20 | 38.40351 | 15.11725 | 28342 ft | 397 kts | 335° |
| 2026-05-04 12:20 | 38.42916 | 15.10417 | 28686 ft | 398 kts | 335° |
| 2026-05-04 12:21 | 38.45490 | 15.09103 | 29024 ft | 399 kts | 335° |
| 2026-05-04 12:21 | 38.48078 | 15.07785 | 29351 ft | 401 kts | 335° |
| 2026-05-04 12:21 | 38.50669 | 15.06464 | 29667 ft | 402 kts | 335° |
| 2026-05-04 12:21 | 38.53272 | 15.05135 | 29970 ft | 403 kts | 335° |
| 2026-05-04 12:22 | 38.55879 | 15.03800 | 30254 ft | 404 kts | 335° |
| 2026-05-04 12:22 | 38.58493 | 15.02461 | 30508 ft | 405 kts | 335° |
| 2026-05-04 12:22 | 38.61116 | 15.01120 | 30778 ft | 406 kts | 335° |
| 2026-05-04 12:22 | 38.63745 | 14.99779 | 30993 ft | 408 kts | 335° |
| 2026-05-04 12:23 | 38.66383 | 14.98429 | 31220 ft | 408 kts | 335° |
| 2026-05-04 12:23 | 38.69011 | 14.97080 | 31546 ft | 406 kts | 335° |
| 2026-05-04 12:23 | 38.71625 | 14.95736 | 31895 ft | 404 kts | 335° |
| 2026-05-04 12:23 | 38.74229 | 14.94397 | 32250 ft | 402 kts | 334° |
| 2026-05-04 12:24 | 38.76813 | 14.93069 | 32606 ft | 399 kts | 334° |
| 2026-05-04 12:24 | 38.79387 | 14.91744 | 32950 ft | 397 kts | 334° |
| 2026-05-04 12:24 | 38.81939 | 14.90427 | 33301 ft | 395 kts | 334° |
| 2026-05-04 12:24 | 38.84444 | 14.89135 | 33649 ft | 392 kts | 334° |
| 2026-05-04 12:25 | 38.86973 | 14.87831 | 34010 ft | 390 kts | 334° |
| 2026-05-04 12:25 | 38.89488 | 14.86533 | 34148 ft | 388 kts | 334° |
| 2026-05-04 12:25 | 38.94421 | 14.83982 | 34177 ft | 379 kts | 333° |
| 2026-05-04 12:26 | 38.99305 | 14.81449 | 34172 ft | 378 kts | 333° |
| 2026-05-04 12:26 | 39.04181 | 14.78921 | 34170 ft | 378 kts | 333° |
| 2026-05-04 12:27 | 39.09054 | 14.76393 | 34195 ft | 378 kts | 333° |
| 2026-05-04 12:27 | 39.13933 | 14.73854 | 34167 ft | 378 kts | 333° |
| 2026-05-04 12:28 | 39.18807 | 14.71306 | 34169 ft | 378 kts | 333° |
| 2026-05-04 12:28 | 39.23681 | 14.68757 | 34165 ft | 378 kts | 333° |
| 2026-05-04 12:29 | 39.28563 | 14.66211 | 34164 ft | 378 kts | 333° |
| 2026-05-04 12:29 | 39.33446 | 14.63663 | 34182 ft | 379 kts | 333° |
| 2026-05-04 12:30 | 39.38333 | 14.61104 | 34168 ft | 379 kts | 333° |
| 2026-05-04 12:30 | 39.43220 | 14.58529 | 34168 ft | 379 kts | 333° |
| 2026-05-04 12:31 | 39.48079 | 14.55971 | 34169 ft | 380 kts | 333° |
| 2026-05-04 12:31 | 39.52979 | 14.53395 | 34168 ft | 380 kts | 333° |
| 2026-05-04 12:32 | 39.60730 | 14.50826 | 34174 ft | 391 kts | 346° |
| 2026-05-04 12:33 | 39.66128 | 14.49891 | 34165 ft | 391 kts | 345° |
| 2026-05-04 12:33 | 39.71529 | 14.48940 | 34161 ft | 392 kts | 345° |
| 2026-05-04 12:34 | 39.76938 | 14.47986 | 34162 ft | 392 kts | 345° |
| 2026-05-04 12:34 | 39.82351 | 14.47030 | 34163 ft | 393 kts | 345° |
| 2026-05-04 12:35 | 39.87765 | 14.46074 | 34164 ft | 393 kts | 345° |
| 2026-05-04 12:35 | 39.93185 | 14.45113 | 34168 ft | 393 kts | 345° |
| 2026-05-04 12:36 | 39.98569 | 14.44169 | 34165 ft | 393 kts | 346° |
| 2026-05-04 12:36 | 40.03993 | 14.43214 | 34166 ft | 394 kts | 345° |
| 2026-05-04 12:37 | 40.09422 | 14.42245 | 34163 ft | 394 kts | 345° |
| 2026-05-04 12:37 | 40.14864 | 14.41273 | 34164 ft | 395 kts | 345° |
| 2026-05-04 12:38 | 40.20315 | 14.40307 | 34161 ft | 395 kts | 345° |
| 2026-05-04 12:38 | 40.25772 | 14.39333 | 34175 ft | 396 kts | 345° |
| 2026-05-04 12:39 | 40.31240 | 14.38352 | 34165 ft | 397 kts | 346° |
| 2026-05-04 12:39 | 40.36725 | 14.37369 | 34166 ft | 398 kts | 346° |
| 2026-05-04 12:40 | 40.42209 | 14.36385 | 34166 ft | 398 kts | 346° |
| 2026-05-04 12:40 | 40.47703 | 14.35405 | 34173 ft | 399 kts | 346° |
| 2026-05-04 12:41 | 40.53208 | 14.34421 | 34161 ft | 399 kts | 346° |
| 2026-05-04 12:41 | 40.58671 | 14.33217 | 34163 ft | 394 kts | 338° |
| 2026-05-04 12:42 | 40.63765 | 14.30704 | 34158 ft | 391 kts | 334° |
| 2026-05-04 12:42 | 40.68841 | 14.28139 | 34168 ft | 392 kts | 335° |
| 2026-05-04 12:43 | 40.73946 | 14.25572 | 34141 ft | 393 kts | 334° |
| 2026-05-04 12:43 | 40.79071 | 14.22978 | 34166 ft | 395 kts | 334° |
| 2026-05-04 12:44 | 40.84201 | 14.20367 | 34176 ft | 396 kts | 334° |
| 2026-05-04 12:44 | 40.89343 | 14.17750 | 34170 ft | 396 kts | 334° |
| 2026-05-04 12:45 | 40.94494 | 14.15124 | 34172 ft | 397 kts | 334° |
| 2026-05-04 12:45 | 40.99615 | 14.12515 | 34175 ft | 397 kts | 334° |
| 2026-05-04 12:46 | 41.04776 | 14.09873 | 34177 ft | 398 kts | 334° |
| 2026-05-04 12:46 | 41.09933 | 14.07234 | 33864 ft | 396 kts | 334° |
| 2026-05-04 12:46 | 41.12490 | 14.05926 | 33254 ft | 393 kts | 335° |
| 2026-05-04 12:47 | 41.15039 | 14.04617 | 32559 ft | 393 kts | 335° |
| 2026-05-04 12:47 | 41.16730 | 14.03746 | 32135 ft | 393 kts | 335° |
| 2026-05-04 12:47 | 41.19278 | 14.02432 | 31547 ft | 393 kts | 335° |
| 2026-05-04 12:47 | 41.21820 | 14.01123 | 30982 ft | 391 kts | 336° |
| 2026-05-04 12:48 | 41.24357 | 13.99814 | 30448 ft | 390 kts | 336° |
| 2026-05-04 12:48 | 41.26851 | 13.98423 | 29871 ft | 387 kts | 330° |
| 2026-05-04 12:48 | 41.29108 | 13.96525 | 29316 ft | 382 kts | 320° |
| 2026-05-04 12:48 | 41.31044 | 13.94134 | 28792 ft | 378 kts | 310° |
| 2026-05-04 12:49 | 41.32623 | 13.91362 | 28289 ft | 374 kts | 303° |
| 2026-05-04 12:49 | 41.34085 | 13.88509 | 27788 ft | 372 kts | 303° |
| 2026-05-04 12:49 | 41.35542 | 13.85679 | 27302 ft | 370 kts | 303° |
| 2026-05-04 12:49 | 41.36995 | 13.82863 | 26825 ft | 368 kts | 303° |
| 2026-05-04 12:50 | 41.38439 | 13.80068 | 26359 ft | 366 kts | 303° |
| 2026-05-04 12:50 | 41.39875 | 13.77278 | 25901 ft | 364 kts | 303° |
| 2026-05-04 12:50 | 41.41298 | 13.74507 | 25448 ft | 362 kts | 303° |
| 2026-05-04 12:50 | 41.42710 | 13.71750 | 24999 ft | 359 kts | 303° |
| 2026-05-04 12:51 | 41.43968 | 13.68942 | 24557 ft | 356 kts | 295° |
| 2026-05-04 12:51 | 41.44815 | 13.65878 | 24324 ft | 347 kts | 284° |
| 2026-05-04 12:51 | 41.45279 | 13.62765 | 24059 ft | 340 kts | 280° |
| 2026-05-04 12:51 | 41.45675 | 13.59677 | 23680 ft | 337 kts | 280° |
| 2026-05-04 12:52 | 41.46066 | 13.56614 | 23217 ft | 334 kts | 280° |
| 2026-05-04 12:52 | 41.46454 | 13.53563 | 22766 ft | 332 kts | 279° |
| 2026-05-04 12:52 | 41.46836 | 13.50539 | 22336 ft | 330 kts | 279° |
| 2026-05-04 12:52 | 41.47214 | 13.47534 | 21930 ft | 327 kts | 279° |
| 2026-05-04 12:53 | 41.47589 | 13.44555 | 21532 ft | 324 kts | 279° |
| 2026-05-04 12:53 | 41.47961 | 13.41603 | 21128 ft | 322 kts | 279° |
| 2026-05-04 12:53 | 41.48332 | 13.38663 | 20734 ft | 321 kts | 279° |
| 2026-05-04 12:53 | 41.48699 | 13.35738 | 20367 ft | 319 kts | 279° |
| 2026-05-04 12:54 | 41.49063 | 13.32829 | 19997 ft | 317 kts | 278° |
| 2026-05-04 12:54 | 41.49423 | 13.29935 | 19633 ft | 315 kts | 278° |
| 2026-05-04 12:54 | 41.49780 | 13.27062 | 19271 ft | 313 kts | 279° |
| 2026-05-04 12:54 | 41.50135 | 13.24208 | 18891 ft | 311 kts | 278° |
| 2026-05-04 12:55 | 41.50489 | 13.21361 | 18542 ft | 310 kts | 278° |
| 2026-05-04 12:55 | 41.50839 | 13.18537 | 18135 ft | 308 kts | 278° |
| 2026-05-04 12:55 | 41.51188 | 13.15717 | 17714 ft | 307 kts | 278° |
| 2026-05-04 12:55 | 41.51536 | 13.12911 | 17282 ft | 307 kts | 278° |
| 2026-05-04 12:56 | 41.51883 | 13.10103 | 16879 ft | 306 kts | 278° |
| 2026-05-04 12:56 | 41.52227 | 13.07304 | 16508 ft | 306 kts | 277° |
| 2026-05-04 12:56 | 41.52571 | 13.04506 | 16140 ft | 305 kts | 277° |
| 2026-05-04 12:56 | 41.52909 | 13.01710 | 15759 ft | 305 kts | 277° |
| 2026-05-04 12:57 | 41.53247 | 12.98921 | 15439 ft | 304 kts | 277° |
| 2026-05-04 12:57 | 41.53583 | 12.96147 | 15100 ft | 303 kts | 277° |
| 2026-05-04 12:57 | 41.54081 | 12.93418 | 14750 ft | 304 kts | 289° |
| 2026-05-04 12:57 | 41.55075 | 12.90921 | 14401 ft | 307 kts | 303° |
| 2026-05-04 12:58 | 41.56516 | 12.88808 | 14065 ft | 310 kts | 315° |
| 2026-05-04 12:58 | 41.58096 | 12.86853 | 13677 ft | 310 kts | 314° |
| 2026-05-04 12:58 | 41.59668 | 12.84897 | 13312 ft | 308 kts | 314° |
| 2026-05-04 12:58 | 41.61232 | 12.82942 | 12955 ft | 307 kts | 314° |
| 2026-05-04 12:59 | 41.62766 | 12.81022 | 12604 ft | 306 kts | 314° |
| 2026-05-04 12:59 | 41.64315 | 12.79086 | 12253 ft | 304 kts | 315° |
| 2026-05-04 12:59 | 41.65855 | 12.77161 | 11901 ft | 303 kts | 315° |
| 2026-05-04 12:59 | 41.67384 | 12.75248 | 11584 ft | 300 kts | 314° |
| 2026-05-04 13:00 | 41.68903 | 12.73345 | 11245 ft | 298 kts | 314° |
| 2026-05-04 13:00 | 41.70414 | 12.71449 | 10903 ft | 298 kts | 314° |
| 2026-05-04 13:00 | 41.71923 | 12.69553 | 10518 ft | 298 kts | 314° |
| 2026-05-04 13:00 | 41.73434 | 12.67655 | 10210 ft | 297 kts | 316° |
| 2026-05-04 13:01 | 41.74944 | 12.65759 | 10162 ft | 298 kts | 315° |
| 2026-05-04 13:01 | 41.76459 | 12.63849 | 10165 ft | 299 kts | 315° |
| 2026-05-04 13:01 | 41.77974 | 12.61940 | 10165 ft | 299 kts | 315° |
| 2026-05-04 13:01 | 41.79495 | 12.60027 | 10165 ft | 299 kts | 315° |
| 2026-05-04 13:02 | 41.81011 | 12.58114 | 10165 ft | 299 kts | 314° |
| 2026-05-04 13:02 | 41.82496 | 12.56161 | 10166 ft | 299 kts | 313° |
| 2026-05-04 13:02 | 41.83927 | 12.54226 | 10161 ft | 285 kts | 312° |
| 2026-05-04 13:02 | 41.85291 | 12.52362 | 10163 ft | 278 kts | 312° |
| 2026-05-04 13:03 | 41.86641 | 12.50512 | 10164 ft | 277 kts | 312° |
| 2026-05-04 13:03 | 41.87989 | 12.48674 | 10163 ft | 276 kts | 312° |
| 2026-05-04 13:03 | 41.89407 | 12.46934 | 10163 ft | 278 kts | 322° |
| 2026-05-04 13:03 | 41.91096 | 12.45673 | 10163 ft | 280 kts | 337° |
| 2026-05-04 13:04 | 41.92953 | 12.44874 | 10158 ft | 280 kts | 342° |
| 2026-05-04 13:04 | 41.94820 | 12.44108 | 10161 ft | 280 kts | 342° |
| 2026-05-04 13:04 | 41.96658 | 12.43345 | 10159 ft | 280 kts | 342° |
| 2026-05-04 13:04 | 41.98521 | 12.42571 | 10160 ft | 281 kts | 342° |
| 2026-05-04 13:05 | 42.00387 | 12.41796 | 10160 ft | 281 kts | 342° |
| 2026-05-04 13:05 | 42.02254 | 12.41019 | 10159 ft | 279 kts | 342° |
| 2026-05-04 13:05 | 42.04077 | 12.40262 | 10171 ft | 273 kts | 341° |
| 2026-05-04 13:05 | 42.05892 | 12.39509 | 10161 ft | 273 kts | 341° |
| 2026-05-04 13:06 | 42.07702 | 12.38756 | 10018 ft | 271 kts | 342° |
| 2026-05-04 13:06 | 42.09503 | 12.38003 | 9654 ft | 271 kts | 342° |
| 2026-05-04 13:06 | 42.11301 | 12.37250 | 9336 ft | 270 kts | 341° |
| 2026-05-04 13:06 | 42.13086 | 12.36499 | 9015 ft | 268 kts | 342° |
| 2026-05-04 13:07 | 42.14862 | 12.35749 | 8682 ft | 266 kts | 342° |
| 2026-05-04 13:07 | 42.16625 | 12.35006 | 8346 ft | 265 kts | 342° |
| 2026-05-04 13:07 | 42.18381 | 12.34266 | 8001 ft | 264 kts | 342° |
| 2026-05-04 13:07 | 42.20134 | 12.33526 | 7669 ft | 263 kts | 342° |
| 2026-05-04 13:08 | 42.21877 | 12.32792 | 7333 ft | 262 kts | 342° |
| 2026-05-04 13:08 | 42.23600 | 12.32069 | 7119 ft | 255 kts | 342° |
| 2026-05-04 13:08 | 42.25267 | 12.31345 | 6921 ft | 249 kts | 336° |
| 2026-05-04 13:08 | 42.26677 | 12.30066 | 6648 ft | 243 kts | 309° |
| 2026-05-04 13:09 | 42.27528 | 12.28157 | 6339 ft | 236 kts | 283° |
| 2026-05-04 13:09 | 42.27704 | 12.26010 | 6051 ft | 227 kts | 258° |
| 2026-05-04 13:09 | 42.27231 | 12.24016 | 5998 ft | 222 kts | 236° |
| 2026-05-04 13:09 | 42.26355 | 12.22302 | 6004 ft | 222 kts | 231° |
| 2026-05-04 13:10 | 42.25450 | 12.20598 | 6000 ft | 224 kts | 231° |
| 2026-05-04 13:10 | 42.24543 | 12.18894 | 6010 ft | 223 kts | 228° |
| 2026-05-04 13:10 | 42.23412 | 12.17523 | 6004 ft | 217 kts | 207° |
| 2026-05-04 13:10 | 42.22035 | 12.16847 | 6008 ft | 207 kts | 187° |
| 2026-05-04 13:11 | 42.20620 | 12.16861 | 5843 ft | 203 kts | 168° |
| 2026-05-04 13:11 | 42.19271 | 12.17406 | 5596 ft | 202 kts | 162° |
| 2026-05-04 13:11 | 42.17935 | 12.17979 | 5365 ft | 202 kts | 162° |
| 2026-05-04 13:11 | 42.16597 | 12.18544 | 5067 ft | 201 kts | 162° |
| 2026-05-04 13:12 | 42.15255 | 12.19048 | 4740 ft | 200 kts | 171° |
| 2026-05-04 13:12 | 42.13870 | 12.19045 | 4446 ft | 200 kts | 186° |
| 2026-05-04 13:12 | 42.12508 | 12.18813 | 4190 ft | 199 kts | 186° |
| 2026-05-04 13:12 | 42.11137 | 12.18584 | 4008 ft | 198 kts | 186° |
| 2026-05-04 13:13 | 42.09779 | 12.18358 | 3763 ft | 196 kts | 186° |
| 2026-05-04 13:13 | 42.08427 | 12.18136 | 3524 ft | 195 kts | 186° |
| 2026-05-04 13:13 | 42.07074 | 12.17913 | 3237 ft | 197 kts | 186° |
| 2026-05-04 13:13 | 42.05707 | 12.17686 | 2979 ft | 197 kts | 186° |
| 2026-05-04 13:14 | 42.04350 | 12.17459 | 2708 ft | 197 kts | 186° |
| 2026-05-04 13:14 | 42.02996 | 12.17232 | 2614 ft | 198 kts | 187° |
| 2026-05-04 13:14 | 42.01633 | 12.17003 | 2615 ft | 199 kts | 186° |
| 2026-05-04 13:14 | 42.00254 | 12.16775 | 2618 ft | 200 kts | 186° |
| 2026-05-04 13:15 | 41.98881 | 12.16549 | 2625 ft | 196 kts | 187° |
| 2026-05-04 13:15 | 41.97542 | 12.16330 | 2616 ft | 193 kts | 186° |
| 2026-05-04 13:15 | 41.96251 | 12.16486 | 2617 ft | 182 kts | 164° |
| 2026-05-04 13:15 | 41.95077 | 12.16959 | 2656 ft | 171 kts | 162° |
| 2026-05-04 13:16 | 41.93958 | 12.17425 | 2604 ft | 167 kts | 162° |
| 2026-05-04 13:16 | 41.92855 | 12.17888 | 2445 ft | 165 kts | 163° |
| 2026-05-04 13:16 | 41.91764 | 12.18346 | 2245 ft | 163 kts | 164° |
| 2026-05-04 13:16 | 41.90729 | 12.18783 | 1928 ft | 149 kts | 164° |
| 2026-05-04 13:17 | 41.89770 | 12.19185 | 1743 ft | 138 kts | 163° |
| 2026-05-04 13:17 | 41.88865 | 12.19565 | 1560 ft | 136 kts | 164° |
| 2026-05-04 13:17 | 41.87969 | 12.19942 | 1393 ft | 134 kts | 163° |
| 2026-05-04 13:17 | 41.87091 | 12.20311 | 1210 ft | 132 kts | 163° |
| 2026-05-04 13:18 | 41.86211 | 12.20679 | 1026 ft | 132 kts | 164° |
| 2026-05-04 13:18 | 41.85328 | 12.21051 | 846 ft | 133 kts | 164° |
| 2026-05-04 13:18 | 41.84442 | 12.21425 | 684 ft | 132 kts | 164° |
| 2026-05-04 13:18 | 41.83561 | 12.21796 | 477 ft | 132 kts | 163° |
| 2026-05-04 13:19 | 41.82688 | 12.22160 | 298 ft | 131 kts | 162° |
| 2026-05-04 13:19 | 41.81815 | 12.22526 | 119 ft | 131 kts | 163° |
| 2026-05-04 13:19 | 41.80962 | 12.22882 | 18 ft | 117 kts | 162° |
| 2026-05-04 13:19 | 41.80355 | 12.23133 | 18 ft | 66 kts | 163° |
| 2026-05-04 13:20 | 41.80025 | 12.23269 | 18 ft | 39 kts | 163° |
| 2026-05-04 13:20 | 41.79784 | 12.23369 | 15 ft | 34 kts | 161° |
| 2026-05-04 13:20 | 41.79582 | 12.23480 | 13 ft | 30 kts | 151° |
| 2026-05-04 13:20 | 41.79460 | 12.23609 | 14 ft | 20 kts | 134° |
| 2026-05-04 13:21 | 41.79367 | 12.23743 | 15 ft | 18 kts | 132° |
| 2026-05-04 13:21 | 41.79320 | 12.23831 | 15 ft | 8 kts | 109° |
| 2026-05-04 13:21 | 41.79322 | 12.23889 | 15 ft | 5 kts | 40° |
| 2026-05-04 13:21 | 41.79352 | 12.23884 | 15 ft | 4 kts | 348° |
| 2026-05-04 13:22 | 41.79380 | 12.23876 | 15 ft | 4 kts | 346° |
| 2026-05-04 13:22 | 41.79405 | 12.23865 | 16 ft | 4 kts | 341° |
| 2026-05-04 13:22 | 41.79426 | 12.23856 | 15 ft | 3 kts | 341° |
| 2026-05-04 13:22 | 41.79442 | 12.23849 | 15 ft | 2 kts | 341° |
| 2026-05-04 13:23 | 41.79452 | 12.23844 | 15 ft | 1 kts | 341° |
| 2026-05-04 13:23 | 41.79459 | 12.23841 | 15 ft | 1 kts | 341° |
| 2026-05-04 13:23 | 41.79471 | 12.23835 | 15 ft | 2 kts | 341° |
| 2026-05-04 13:23 | 41.79484 | 12.23829 | 14 ft | 2 kts | 341° |
| 2026-05-04 13:24 | 41.79495 | 12.23824 | 15 ft | 1 kts | 341° |
| 2026-05-04 13:24 | 41.79514 | 12.23816 | 14 ft | 5 kts | 343° |
| 2026-05-04 13:24 | 41.79569 | 12.23794 | 14 ft | 10 kts | 343° |
| 2026-05-04 13:25 | 41.79686 | 12.23747 | 14 ft | 8 kts | 343° |
| 2026-05-04 13:25 | 41.79736 | 12.23727 | 15 ft | 7 kts | 343° |
| 2026-05-04 13:25 | 41.79779 | 12.23709 | 14 ft | 6 kts | 342° |
| 2026-05-04 13:25 | 41.79816 | 12.23702 | 14 ft | 5 kts | 7° |
| 2026-05-04 13:26 | 41.79832 | 12.23730 | 14 ft | 4 kts | 74° |
| 2026-05-04 13:26 | 41.79847 | 12.23791 | 15 ft | 8 kts | 70° |
| 2026-05-04 13:26 | 41.79865 | 12.23856 | 14 ft | 7 kts | 69° |
| 2026-05-04 13:26 | 41.79881 | 12.23914 | 14 ft | 6 kts | 69° |
| 2026-05-04 13:27 | 41.79894 | 12.23962 | 14 ft | 5 kts | 69° |
| 2026-05-04 13:27 | 41.79910 | 12.24019 | 14 ft | 10 kts | 70° |
| 2026-05-04 13:27 | 41.79917 | 12.24111 | 14 ft | 10 kts | 92° |
| 2026-05-04 13:27 | 41.79929 | 12.24222 | 15 ft | 14 kts | 72° |
| 2026-05-04 13:28 | 41.79962 | 12.24344 | 14 ft | 15 kts | 70° |
| 2026-05-04 13:28 | 41.79997 | 12.24467 | 13 ft | 14 kts | 69° |
| 2026-05-04 13:28 | 41.80032 | 12.24598 | 15 ft | 15 kts | 69° |
| 2026-05-04 13:28 | 41.80068 | 12.24726 | 14 ft | 14 kts | 69° |
| 2026-05-04 13:29 | 41.80101 | 12.24854 | 16 ft | 15 kts | 74° |
| 2026-05-04 13:29 | 41.80110 | 12.24993 | 14 ft | 15 kts | 97° |
| 2026-05-04 13:29 | 41.80083 | 12.25140 | 16 ft | 18 kts | 107° |
| 2026-05-04 13:29 | 41.80037 | 12.25302 | 15 ft | 20 kts | 116° |
| 2026-05-04 13:30 | 41.79982 | 12.25453 | 16 ft | 18 kts | 115° |
| 2026-05-04 13:30 | 41.79931 | 12.25598 | 14 ft | 17 kts | 115° |
| 2026-05-04 13:30 | 41.79884 | 12.25731 | 14 ft | 10 kts | 115° |
| 2026-05-04 13:30 | 41.79855 | 12.25783 | 14 ft | 5 kts | 163° |
| 2026-05-04 13:31 | 41.79820 | 12.25779 | 14 ft | 6 kts | 199° |
| 2026-05-04 13:31 | 41.79768 | 12.25746 | 14 ft | 8 kts | 205° |
| 2026-05-04 13:31 | 41.79749 | 12.25712 | 15 ft | 4 kts | 270° |
| 2026-05-04 13:31 | 41.79757 | 12.25682 | 14 ft | 3 kts | 295° |
| 2026-05-04 13:32 | 41.79763 | 12.25667 | 15 ft | 1 kts | 295° |
| 2026-05-04 13:32 | 41.79764 | 12.25664 | 15 ft | 0 kts | 295° |